Have a Safe July 4th! 

Flight Track Log - Related Links

Times and Time Zones

All times are in EDT time to prevent confusion due to time zone crossing. See the N45EJ flight status page for this flight to view local times or setup timezone preferences in your user account.

Time Position Orientation Groundspeed Altitude Reporting Facility
EDT Latitude Longitude Course Direction KTS MPH feet Rate Location/Type
Fri 10:59:26 AM 42.1333 -87.9167 308° West 170 196 1,700  Level Chicago TRACON
Fri 10:59:57 AM 42.1467 -87.9400 308° West 195 224 2,300 1,484 Climbing Chicago Center
Fri 11:00:59 AM 42.1625 -88.0356 283° West 232 267 4,000 1,597 Climbing Chicago Center
Fri 11:02:01 AM 42.1203 -88.1056 231° Southwest 257 296 5,600 2,419 Climbing Chicago Center
Fri 11:03:03 AM 42.0572 -88.1608 213° Southwest 271 312 9,000 2,928 Climbing Chicago Center
Fri 11:04:06 AM 41.9897 -88.2175 212° Southwest 284 327 11,700 2,304 Climbing Chicago Center
Fri 11:05:08 AM 41.9686 -88.3122 253° West 274 315 13,800 2,129 Climbing Chicago Center
Fri 11:06:10 AM 41.9606 -88.4453 265° West 295 339 16,100 1,887 Climbing Chicago Center
Fri 11:07:12 AM 41.9472 -88.5683 262° West 327 376 17,700 1,597 Climbing Chicago Center
Fri 11:08:14 AM 41.9231 -88.6919 255° West 342 394 19,400 1,645 Climbing Chicago Center
Fri 11:09:16 AM 41.8994 -88.8194 256° West 353 406 21,100 1,645 Climbing Chicago Center
Fri 11:10:18 AM 41.8708 -88.9744 256° West 359 413 22,800 1,500 Climbing Chicago Center
Fri 11:11:20 AM 41.8503 -89.1061 258° West 362 417 24,200 1,790 Climbing Chicago Center
Fri 11:12:22 AM 41.8456 -89.2394 267° West 364 419 26,500 1,984 Climbing Chicago Center
Fri 11:13:24 AM 41.8447 -89.3694 270° West 351 404 28,300 1,790 Climbing Chicago Center
Fri 11:14:26 AM 41.8442 -89.4992 270° West 351 404 30,200 1,790 Climbing Chicago Center
Fri 11:15:28 AM 41.8403 -89.6536 268° West 347 399 32,000 1,488 Climbing Chicago Center
Fri 11:16:31 AM 41.8378 -89.7847 269° West 353 406 33,300 1,392 Climbing Chicago Center
Fri 11:17:33 AM 41.8372 -89.9172 270° West 349 402 34,900 1,887 Climbing Chicago Center
Fri 11:18:35 AM 41.8353 -90.0353 269° West 321 369 37,200 1,790 Climbing Chicago Center
Fri 11:19:37 AM 41.8339 -90.1497 269° West 312 359 38,600 1,306 Climbing Chicago Center
Fri 11:20:39 AM 41.8308 -90.2642 268° West 310 357 39,900 677 Climbing Chicago Center
Fri 11:21:41 AM 41.8289 -90.3806 269° West 314 361 40,000 48 Climbing Chicago Center
Fri 11:22:43 AM 41.8256 -90.5339 268° West 342 394 40,000 677 Level Chicago Center
Fri 11:23:45 AM 41.8203 -90.6689 267° West 361 415 41,400 1,016 Climbing Chicago Center
Fri 11:24:47 AM 41.8167 -90.7972 268° West 350 403 42,100 677 Climbing Chicago Center
Fri 11:25:49 AM 41.8131 -90.9244 268° West 346 398 42,800 435 Climbing Chicago Center
Fri 11:26:51 AM 41.8097 -91.0558 268° West 353 406 43,000 97 Climbing Chicago Center
Fri 11:27:53 AM 41.8044 -91.2200 268° West 368 423 43,000  Level Chicago Center
Fri 11:28:56 AM 41.8008 -91.3614 268° West 378 435 43,000  Level Chicago Center
Fri 11:29:58 AM 41.7958 -91.5006 267° West 378 435 43,000  Level Chicago Center
Fri 11:31:00 AM 41.7903 -91.6406 267° West 379 436 43,000  Level Chicago Center
Fri 11:32:02 AM 41.7867 -91.7806 268° West 378 435 43,000  Level Chicago Center
Fri 11:33:04 AM 41.7803 -91.9475 267° West 377 434 43,000  Level Chicago Center
Fri 11:34:06 AM 41.7758 -92.0867 268° West 377 434 43,000  Level Chicago Center
Fri 11:35:08 AM 41.7700 -92.2258 267° West 377 434 43,000  Level Chicago Center
Fri 11:36:10 AM 41.7644 -92.3661 267° West 380 437 43,000  Level Chicago Center
Fri 11:37:12 AM 41.7592 -92.5050 267° West 377 434 43,000  Level Chicago Center
Fri 11:38:14 AM 41.7517 -92.6731 267° West 379 436 43,000  Level Chicago Center
Fri 11:39:16 AM 41.7461 -92.7972 267° West 380 437 43,000  Level Chicago Center
Fri 11:40:24 AM 41.7389 -92.9658 267° West 380 437 43,000  Level Minneapolis Center
Fri 11:41:26 AM 41.7319 -93.1053 266° West 380 437 43,000  Level Minneapolis Center
Fri 11:42:28 AM 41.7256 -93.2450 267° West 380 437 43,000  Level Minneapolis Center
Fri 11:43:30 AM 41.7178 -93.4117 266° West 379 436 43,000  Level Minneapolis Center
Fri 11:44:32 AM 41.7103 -93.5506 266° West 378 435 43,000  Level Minneapolis Center
Fri 11:45:35 AM 41.7036 -93.6881 266° West 375 432 43,000  Level Minneapolis Center
Fri 11:46:37 AM 41.6958 -93.8275 266° West 379 436 43,000  Level Minneapolis Center
Fri 11:47:39 AM 41.6869 -93.9928 266° West 383 441 43,000  Level Minneapolis Center
Fri 11:48:41 AM 41.6806 -94.1325 267° West 379 436 43,000  Level Minneapolis Center
Fri 11:49:43 AM 41.6703 -94.2728 264° West 379 436 43,000  Level Minneapolis Center
Fri 11:50:45 AM 41.6611 -94.4125 265° West 379 436 43,000  Level Minneapolis Center
Fri 11:51:47 AM 41.6542 -94.5539 266° West 381 438 43,000  Level Minneapolis Center
Fri 11:52:49 AM 41.6453 -94.7242 266° West 383 441 43,000  Level Minneapolis Center
Fri 11:53:51 AM 41.6372 -94.8669 266° West 386 444 43,000  Level Minneapolis Center
Fri 11:54:53 AM 41.6308 -94.9781 266° West 379 436 43,000  Level Minneapolis Center
Fri 11:56:08 AM 41.6172 -95.1764 265° West 382 440 43,000  Level Minneapolis Center
Fri 11:57:10 AM 41.6083 -95.3189 265° West 385 443 43,000  Level Minneapolis Center
Fri 11:58:12 AM 41.5975 -95.4897 265° West 386 444 43,000  Level Minneapolis Center
Fri 11:59:14 AM 41.5869 -95.6311 264° West 385 443 43,000  Level Minneapolis Center
Fri 12:00:16 PM 41.5764 -95.7789 265° West 388 447 43,000  Level Minneapolis Center
Fri 12:01:18 PM 41.5667 -95.9211 265° West 387 445 43,000  Level Minneapolis Center
Fri 12:02:20 PM 41.5564 -96.0639 265° West 386 444 43,000  Level Minneapolis Center
Fri 12:03:22 PM 41.5461 -96.2064 265° West 387 445 43,000  Level Minneapolis Center
Fri 12:04:24 PM 41.5347 -96.3653 265° West 386 444 43,000  Level Minneapolis Center
Fri 12:05:26 PM 41.5264 -96.4797 264° West 390 449 43,000  Level Minneapolis Center
Fri 12:06:28 PM 41.5136 -96.6500 264° West 388 447 43,000  Level Minneapolis Center
Fri 12:07:30 PM 41.5011 -96.7919 263° West 387 445 43,000  Level Minneapolis Center
Fri 12:08:33 PM 41.4878 -96.9622 264° West 386 444 43,000 -96 Level Minneapolis Center
Fri 12:09:35 PM 41.4758 -97.1033 264° West 386 444 42,800 -339 Descending Minneapolis Center
Fri 12:10:37 PM 41.4644 -97.2428 264° West 381 438 42,300 -484 Descending Minneapolis Center
Fri 12:11:39 PM 41.4522 -97.3811 263° West 379 436 41,800 -484 Descending Minneapolis Center
Fri 12:12:41 PM 41.4414 -97.5197 264° West 378 435 41,300 -484 Descending Minneapolis Center
Fri 12:13:43 PM 41.4294 -97.6583 263° West 377 434 40,800 -677 Descending Minneapolis Center
Fri 12:14:45 PM 41.4150 -97.8256 263° West 378 435 39,900 -823 Descending Minneapolis Center
Fri 12:15:47 PM 41.4022 -97.9667 263° West 382 440 39,100 -774 Descending Minneapolis Center
Fri 12:16:49 PM 41.3892 -98.1083 263° West 385 443 38,300 -532 Descending Minneapolis Center
Fri 12:17:51 PM 41.3758 -98.2650 264° West 386 444 38,000 -339 Descending Minneapolis Center
Fri 12:18:53 PM 41.3628 -98.4078 263° West 388 447 37,600 -1,016 Descending Minneapolis Center
Fri 12:19:55 PM 41.3506 -98.5364 263° West 390 449 35,900 -2,688 Descending Minneapolis Center
Fri 12:20:58 PM 41.3328 -98.7147 262° West 399 459 32,000 -3,264 Descending Minneapolis Center
Fri 12:22:00 PM 41.3178 -98.8717 263° West 413 475 29,100 -1,752 Descending Minneapolis Center
Fri 12:23:15 PM 41.3011 -99.0597 263° West 438 504 28,000 -613 Descending Denver Center
Fri 12:24:17 PM 41.2831 -99.2278 262° West 427 491 27,700 -484 Descending Denver Center
Fri 12:25:19 PM 41.2675 -99.3789 262° West 418 481 27,000 -823 Descending Denver Center
Fri 12:26:21 PM 41.2506 -99.5431 262° West 409 471 26,000 -1,790 Descending Denver Center
Fri 12:27:23 PM 41.2367 -99.6797 262° West 395 455 23,300 -2,903 Descending Denver Center
Fri 12:28:25 PM 41.2206 -99.8369 262° West 387 445 20,000 -2,903 Descending Denver Center
Fri 12:29:27 PM 41.2058 -99.9689 262° West 381 438 17,300 -3,097 Descending Denver Center
Fri 12:30:29 PM 41.1894 -100.1153 262° West 364 419 13,600 -3,290 Descending Denver Center
Fri 12:31:31 PM 41.1725 -100.2339 259° West 348 400 10,500 -2,661 Descending Denver Center
Fri 12:32:33 PM 41.1303 -100.3489 244° Southwest 316 364 8,100 -2,323 Descending Denver Center
Fri 12:34:00 PM 41.1333 -100.5421 270° West  Level FlightAware Approximate
Fri 12:41:00 PM 41.1167 -100.6833 252° West  Level FlightAware Approximate
Fri 12:42:00 PM 41.1262 -100.6837 252° West  Level Estimated
Fri 12:43:00 PM 41.1262 -100.6837 252° West  Level Estimated
Fri 12:44:00 PM 41.1262 -100.6837 252° West  Level Estimated
Fri 12:45:00 PM 41.1262 -100.6837 252° West  Level Estimated
Fri 12:46:00 PM 41.1262 -100.6837 252° West  Level Estimated
Fri 12:47:00 PM 41.1262 -100.6837 252° West  Level Estimated
Fri 12:48:00 PM 41.1262 -100.6837 252° West  Level Estimated
Fri 12:49:00 PM 41.1262 -100.6837 252° West  Level Estimated
Fri 12:50:00 PM 41.1262 -100.6837 252° West  Level Estimated
Fri 12:51:00 PM 41.1262 -100.6837 252° West  Level Estimated
Fri 12:52:00 PM 41.1262 -100.6837 252° West  Level Estimated
Fri 12:53:00 PM 41.1262 -100.6837 252° West  Level Estimated
Fri 12:54:00 PM 41.1262 -100.6837 252° West  Level Estimated

Login

Don't have an account? Register now (free) for customized features, flight alerts, and more!